This is the latest recevied weather packets stored in our database for station/object KA0EGE. If no packets are shown the sender has not sent any weather packets the latest 1 day(s).
| Time | Temp. | Humidity | Pressure | Rain* | Wind** | Luminosity | Snow |
|---|---|---|---|---|---|---|---|
| 1778095309 | 28.89° C | 70% | 1018.2 hPa | 0 mm | - | 871 W/m² | - |
| 1778095006 | 28.33° C | 70% | 1018.3 hPa | 0 mm | - | 664 W/m² | - |
| 1778094702 | 29.44° C | 69% | 1018.4 hPa | 0 mm | - | 763 W/m² | - |
| 1778094096 | 30° C | 66% | 1018.5 hPa | 0 mm | - | 932 W/m² | - |
| 1778093187 | 29.44° C | 66% | 1018.5 hPa | 0 mm | - | 874 W/m² | - |
| 1778092884 | 30° C | 66% | 1018.6 hPa | 0 mm | - | 865 W/m² | - |
| 1778091369 | 28.89° C | 69% | 1018.7 hPa | 0 mm | - | 940 W/m² | - |
| 1778091066 | 28.89° C | 69% | 1018.7 hPa | 0 mm | - | 958 W/m² | - |
| 1778090155 | 28.89° C | 70% | 1018.7 hPa | 0 mm | - | 500 W/m² | - |
| 1778089246 | 29.44° C | 66% | 1019 hPa | 0 mm | - | 907 W/m² | - |
| 1778088034 | 28.89° C | 71% | 1019.5 hPa | 0 mm | - | 865 W/m² | - |
| 1778087732 | 28.33° C | 69% | 1019.4 hPa | 0 mm | - | 860 W/m² | - |
| 1778084695 | 26.67° C | 74% | 1019.6 hPa | 0 mm | - | 866 W/m² | - |
| 1778084391 | 26.11° C | 77% | 1019.8 hPa | 0 mm | - | 213 W/m² | - |
| 1778084089 | 26.67° C | 76% | 1019.9 hPa | 0 mm | - | 215 W/m² | - |
| 1778083781 | 26.67° C | 75% | 1019.7 hPa | 0 mm | - | 259 W/m² | - |
| 1778081154 | 27.78° C | 73% | 1019.3 hPa | 0 mm | - | 803 W/m² | - |
| 1778080852 | 26.67° C | 74% | 1019.3 hPa | 0 mm | - | 734 W/m² | - |
| 1778080550 | 26.67° C | 73% | 1019.5 hPa | 0 mm | - | 250 W/m² | - |
| 1778080247 | 26.67° C | 72% | 1019.4 hPa | 0 mm | - | 785 W/m² | - |
| 1778079943 | 26.67° C | 75% | 1019.3 hPa | 0 mm | - | 686 W/m² | - |
| 1778079640 | 26.67° C | 76% | 1019.2 hPa | 0 mm | - | 726 W/m² | - |
| 1778079034 | 26.11° C | 77% | 1018.9 hPa | 0 mm | - | 662 W/m² | - |
| 1778078731 | 26.11° C | 77% | 1018.9 hPa | 0 mm | - | 656 W/m² | - |
| 1778078126 | 26.11° C | 77% | 1018.8 hPa | 0 mm | - | 588 W/m² | - |
* Rain latest hour (hover to see other rain measurements)
** Current wind speed in m/s (hover to see current wind gust speed)